Time;durP1;ratioP1;P1;durP2;ratioP2;P2;SDS_P1;SDS_P2;PMS_P1;PMS_P2;Temp;Humidity;BMP_temperature;BMP_pressure;BME280_temperature;BME280_humidity;BME280_pressure;Samples;Min_cycle;Max_cycle;Signal;HPM_P1;HPM_P2
2023/10/04 00:00:59;;;;;;;4.97;2.80;;;14.00;99.90;;;;;;5106517;28;20448;-65
2023/10/04 00:03:28;;;;;;;2.80;2.43;;;13.90;99.90;;;;;;5105306;28;20438;-63
2023/10/04 00:05:54;;;;;;;3.07;2.20;;;13.90;99.90;;;;;;5105235;28;20452;-64
2023/10/04 00:08:22;;;;;;;3.97;2.10;;;13.90;99.90;;;;;;5102881;28;20422;-65
2023/10/04 00:10:49;;;;;;;5.50;2.80;;;13.80;99.90;;;;;;5104982;28;20479;-64
2023/10/04 00:13:15;;;;;;;5.07;2.80;;;13.80;99.90;;;;;;5105840;28;20421;-64
2023/10/04 00:15:41;;;;;;;6.07;2.20;;;13.80;99.90;;;;;;5103565;28;20993;-64
2023/10/04 00:18:07;;;;;;;3.73;2.10;;;13.80;99.90;;;;;;5105346;28;20205;-65
2023/10/04 00:20:33;;;;;;;4.60;2.60;;;13.90;99.90;;;;;;5104197;28;20187;-65
2023/10/04 00:23:05;;;;;;;4.97;2.03;;;13.90;99.90;;;;;;5105256;28;20180;-65
2023/10/04 00:25:33;;;;;;;3.70;2.70;;;13.80;99.90;;;;;;5103592;28;20422;-65
2023/10/04 00:27:59;;;;;;;3.97;2.40;;;13.80;99.90;;;;;;5104698;28;20433;-64
2023/10/04 00:30:28;;;;;;;3.00;2.23;;;13.70;99.90;;;;;;5104122;28;20428;-64
2023/10/04 00:32:54;;;;;;;7.70;2.70;;;13.70;99.90;;;;;;5104960;28;20509;-64
2023/10/04 00:35:21;;;;;;;9.00;2.23;;;13.80;99.90;;;;;;5104257;28;20483;-64
2023/10/04 00:38:01;;;;;;;7.03;2.33;;;13.70;99.90;;;;;;5104596;28;20417;-65
2023/10/04 00:40:29;;;;;;;5.27;2.50;;;13.80;99.90;;;;;;5104100;28;20461;-64
2023/10/04 00:42:56;;;;;;;6.10;2.23;;;13.80;99.90;;;;;;5104812;28;21096;-65
2023/10/04 00:45:23;;;;;;;7.90;2.33;;;13.70;99.90;;;;;;5103929;28;20444;-65
2023/10/04 00:47:59;;;;;;;4.37;2.57;;;13.70;99.90;;;;;;5104408;28;20430;-64
2023/10/04 00:50:34;;;;;;;3.60;2.17;;;13.80;99.90;;;;;;5103702;28;20532;-64
2023/10/04 00:53:36;;;;;;;3.40;1.80;;;13.80;99.90;;;;;;5086357;28;20432;-64
2023/10/04 00:56:02;;;;;;;4.33;3.07;;;13.80;99.90;;;;;;5041301;28;20466;-64
2023/10/04 00:58:28;;;;;;;5.93;2.47;;;13.70;99.90;;;;;;5091016;28;20430;-64
2023/10/04 01:00:54;;;;;;;3.37;2.27;;;13.80;99.90;;;;;;5104627;28;20425;-64
2023/10/04 01:03:20;;;;;;;8.90;3.40;;;13.80;99.90;;;;;;5104790;28;20482;-65
2023/10/04 01:05:47;;;;;;;6.37;2.30;;;13.60;99.90;;;;;;5104320;28;20192;-65
2023/10/04 01:08:20;;;;;;;4.67;2.50;;;13.60;99.90;;;;;;5104076;28;20425;-64
2023/10/04 01:10:47;;;;;;;6.10;2.20;;;13.60;99.90;;;;;;5103971;28;20429;-65
2023/10/04 01:13:16;;;;;;;5.07;2.50;;;13.60;99.90;;;;;;5104339;28;20993;-64
2023/10/04 01:15:42;;;;;;;8.10;2.43;;;13.60;99.90;;;;;;5097601;28;20417;-64
2023/10/04 01:18:12;;;;;;;3.73;2.20;;;13.60;99.90;;;;;;5104139;28;20976;-64
2023/10/04 01:20:39;;;;;;;3.70;1.90;;;13.70;99.90;;;;;;5103546;28;20219;-64
2023/10/04 01:23:07;;;;;;;8.93;2.53;;;13.70;99.90;;;;;;5103807;28;20442;-64
2023/10/04 01:25:34;;;;;;;5.53;2.20;;;13.70;99.90;;;;;;5103015;28;20463;-65
2023/10/04 01:28:17;;;;;;;3.60;1.90;;;13.70;99.90;;;;;;5103988;28;20426;-65
2023/10/04 01:30:47;;;;;;;4.77;2.43;;;13.70;99.90;;;;;;5101281;28;20421;-64
2023/10/04 01:33:15;;;;;;;7.07;2.33;;;13.70;99.90;;;;;;5103999;28;20432;-64
2023/10/04 01:35:45;;;;;;;4.87;2.40;;;13.70;99.90;;;;;;5102666;28;20421;-64
2023/10/04 01:38:12;;;;;;;5.13;2.47;;;13.70;99.90;;;;;;5103681;28;21056;-64
2023/10/04 01:40:39;;;;;;;5.30;2.07;;;13.70;99.90;;;;;;5102709;28;20425;-65
2023/10/04 01:43:18;;;;;;;4.30;2.47;;;13.80;99.90;;;;;;5103697;28;20468;-64
2023/10/04 01:45:48;;;;;;;4.83;2.00;;;13.70;99.90;;;;;;5103204;28;20531;-64
2023/10/04 01:48:16;;;;;;;5.73;2.57;;;13.70;99.90;;;;;;5103608;28;20426;-64
2023/10/04 01:50:48;;;;;;;6.77;2.17;;;13.70;99.90;;;;;;5102686;28;20461;-65
2023/10/04 01:53:15;;;;;;;7.40;4.30;;;13.70;99.90;;;;;;5103580;28;20991;-65
2023/10/04 01:55:41;;;;;;;3.77;2.03;;;13.70;99.90;;;;;;5094405;28;20495;-64
2023/10/04 01:58:08;;;;;;;4.70;1.93;;;13.70;99.90;;;;;;5103633;28;20425;-65
2023/10/04 02:00:35;;;;;;;4.13;2.20;;;13.60;99.90;;;;;;5102617;28;20991;-64
2023/10/04 02:03:01;;;;;;;9.00;2.73;;;13.60;99.90;;;;;;5103732;28;20855;-65
2023/10/04 02:05:37;;;;;;;4.33;2.20;;;13.60;99.90;;;;;;5102573;28;20414;-65
2023/10/04 02:08:09;;;;;;;4.17;2.30;;;13.50;99.90;;;;;;5103426;28;20441;-64
2023/10/04 02:10:36;;;;;;;7.00;2.03;;;13.50;99.90;;;;;;5102285;28;20560;-64
2023/10/04 02:13:12;;;;;;;6.17;2.53;;;13.50;99.90;;;;;;5103252;28;20432;-64
2023/10/04 02:15:39;;;;;;;4.80;2.40;;;13.60;99.90;;;;;;5083969;28;20447;-64
2023/10/04 02:18:04;;;;;;;3.60;1.90;;;13.60;99.90;;;;;;5103506;28;20433;-65
2023/10/04 02:20:34;;;;;;;11.43;2.87;;;13.60;99.90;;;;;;5102366;28;21224;-65
2023/10/04 02:23:03;;;;;;;5.70;2.60;;;13.70;99.90;;;;;;5103642;28;20176;-64
2023/10/04 02:25:29;;;;;;;4.40;2.10;;;13.60;99.90;;;;;;5102111;28;20433;-65
2023/10/04 02:28:00;;;;;;;5.80;2.37;;;13.70;99.90;;;;;;5103212;28;20425;-65
2023/10/04 02:30:29;;;;;;;8.07;2.00;;;13.70;99.90;;;;;;5102062;28;20441;-64
2023/10/04 02:32:55;;;;;;;4.10;2.33;;;13.60;99.90;;;;;;5103077;28;20473;-65
2023/10/04 02:35:33;;;;;;;6.30;2.30;;;13.60;99.90;;;;;;5101924;28;20425;-65
2023/10/04 02:38:00;;;;;;;7.77;2.40;;;13.70;99.90;;;;;;5103532;28;20421;-64
2023/10/04 02:40:32;;;;;;;4.67;1.57;;;13.80;99.90;;;;;;5105900;28;21143;-64
2023/10/04 02:42:59;;;;;;;6.37;2.30;;;13.80;99.90;;;;;;5107049;28;20426;-65
2023/10/04 02:45:26;;;;;;;3.47;1.70;;;13.80;99.90;;;;;;5105920;28;20784;-64
2023/10/04 02:47:53;;;;;;;4.07;2.77;;;13.70;99.90;;;;;;5107245;28;20433;-65
2023/10/04 02:50:23;;;;;;;7.90;2.57;;;13.70;99.90;;;;;;5105880;28;20437;-65
2023/10/04 02:52:52;;;;;;;2.53;2.00;;;13.60;99.90;;;;;;5106805;28;20556;-64
2023/10/04 02:55:18;;;;;;;5.23;2.70;;;13.60;99.90;;;;;;5105860;28;20443;-64
2023/10/04 02:57:51;;;;;;;7.27;2.33;;;13.70;99.90;;;;;;5107150;28;20493;-64
2023/10/04 03:00:20;;;;;;;5.40;2.03;;;13.70;99.90;;;;;;5106031;28;20449;-64
2023/10/04 03:02:54;;;;;;;5.60;2.33;;;13.70;99.90;;;;;;5106670;28;20513;-65
2023/10/04 03:05:20;;;;;;;4.20;2.17;;;13.60;99.90;;;;;;5105624;28;20433;-65
2023/10/04 03:07:47;;;;;;;7.27;2.60;;;13.70;99.90;;;;;;5106884;28;20471;-64
2023/10/04 03:10:23;;;;;;;4.13;2.43;;;13.70;99.90;;;;;;5106536;28;20196;-64
2023/10/04 03:13:00;;;;;;;5.60;2.00;;;13.70;99.90;;;;;;5099512;28;20506;-64
2023/10/04 03:15:29;;;;;;;9.53;2.70;;;13.80;99.90;;;;;;5105669;28;20425;-65
2023/10/04 03:17:57;;;;;;;6.97;2.30;;;13.70;99.90;;;;;;5106340;28;21041;-64
2023/10/04 03:20:24;;;;;;;6.43;2.87;;;13.70;99.90;;;;;;5105198;28;20425;-64
2023/10/04 03:22:51;;;;;;;6.80;2.40;;;13.60;99.90;;;;;;5106220;28;20465;-64
2023/10/04 03:25:17;;;;;;;4.83;2.03;;;13.70;99.90;;;;;;5105541;28;20424;-65
2023/10/04 03:27:46;;;;;;;3.63;2.00;;;13.70;99.90;;;;;;5106028;28;20448;-65
2023/10/04 03:30:16;;;;;;;6.00;2.40;;;13.70;99.90;;;;;;5106041;28;20445;-64
2023/10/04 03:32:50;;;;;;;5.30;2.90;;;13.70;99.90;;;;;;5087705;28;20564;-65
2023/10/04 03:35:16;;;;;;;2.83;2.50;;;13.80;99.90;;;;;;5105065;28;21210;-64
2023/10/04 03:37:54;;;;;;;7.20;2.50;;;13.70;99.90;;;;;;5105997;28;20429;-65
2023/10/04 03:40:22;;;;;;;7.60;2.77;;;13.80;99.90;;;;;;5105290;28;20539;-64
2023/10/04 03:42:48;;;;;;;7.13;2.30;;;13.70;99.90;;;;;;5106060;28;20422;-64
2023/10/04 03:45:17;;;;;;;9.70;2.80;;;13.80;99.90;;;;;;5105404;28;20770;-64
2023/10/04 03:47:50;;;;;;;6.60;2.70;;;13.80;99.90;;;;;;5097762;28;20758;-64
2023/10/04 03:50:17;;;;;;;4.20;2.20;;;13.90;99.90;;;;;;5103929;28;20514;-63
2023/10/04 03:52:43;;;;;;;6.93;2.90;;;13.90;99.90;;;;;;5106118;28;20508;-64
2023/10/04 03:55:10;;;;;;;4.60;2.37;;;13.90;99.90;;;;;;5105635;28;20426;-64
2023/10/04 03:57:42;;;;;;;6.10;2.67;;;13.90;99.90;;;;;;5104943;28;20433;-64
2023/10/04 04:00:17;;;;;;;5.43;2.80;;;13.90;99.90;;;;;;5105496;28;20789;-64
2023/10/04 04:02:44;;;;;;;5.10;2.23;;;13.90;99.90;;;;;;5099415;28;20514;-65
2023/10/04 04:05:14;;;;;;;6.37;2.77;;;13.90;99.90;;;;;;5105152;28;20538;-64
2023/10/04 04:07:43;;;;;;;4.47;2.00;;;13.90;99.90;;;;;;5105435;28;20429;-65
2023/10/04 04:10:11;;;;;;;8.37;2.70;;;13.90;99.90;;;;;;5105538;28;20425;-65
2023/10/04 04:12:40;;;;;;;3.60;2.10;;;13.80;99.90;;;;;;5104698;28;20469;-66
2023/10/04 04:15:10;;;;;;;5.83;2.60;;;13.80;99.90;;;;;;5105293;28;20425;-65
2023/10/04 04:17:37;;;;;;;4.43;2.33;;;13.80;99.90;;;;;;5104830;28;20915;-64
2023/10/04 04:20:16;;;;;;;5.30;2.40;;;13.90;99.90;;;;;;5105184;28;20449;-65
2023/10/04 04:22:53;;;;;;;4.40;2.40;;;13.90;99.90;;;;;;5105463;28;20454;-66
2023/10/04 04:25:20;;;;;;;4.33;2.03;;;13.90;99.90;;;;;;5104453;28;20417;-64
2023/10/04 04:27:50;;;;;;;5.80;2.70;;;13.90;99.90;;;;;;5105219;28;20826;-64
2023/10/04 04:30:28;;;;;;;6.70;2.60;;;13.80;99.90;;;;;;5104219;28;20457;-65
2023/10/04 04:32:57;;;;;;;5.30;2.60;;;13.80;99.90;;;;;;5098375;28;20489;-64
2023/10/04 04:38:24;;;;;;;5.30;2.27;;;13.70;99.90;;;;;;5105435;28;20421;-64
2023/10/04 04:40:58;;;;;;;5.57;2.27;;;13.80;99.90;;;;;;5097947;28;21288;-64
2023/10/04 04:43:37;;;;;;;8.60;3.10;;;13.80;99.90;;;;;;5103871;28;20440;-64
2023/10/04 04:46:12;;;;;;;7.17;2.60;;;13.80;99.90;;;;;;5104615;28;20431;-64
2023/10/04 04:48:38;;;;;;;5.73;2.37;;;13.70;99.90;;;;;;5104444;28;20422;-64
2023/10/04 04:51:12;;;;;;;5.30;2.90;;;13.70;99.90;;;;;;5104444;28;20453;-64
2023/10/04 04:53:49;;;;;;;4.73;2.30;;;13.80;99.90;;;;;;5104218;28;20499;-64
2023/10/04 04:56:15;;;;;;;6.57;2.50;;;13.80;99.90;;;;;;5103748;28;20429;-64
2023/10/04 04:58:48;;;;;;;4.10;2.10;;;13.70;99.90;;;;;;5104834;28;20428;-64
2023/10/04 05:01:15;;;;;;;7.47;2.77;;;13.60;99.90;;;;;;5103188;28;20183;-64
2023/10/04 05:03:42;;;;;;;3.20;1.80;;;13.70;99.90;;;;;;5096001;28;20807;-64
2023/10/04 05:06:15;;;;;;;5.73;2.63;;;13.60;99.90;;;;;;5103738;28;20437;-64
2023/10/04 05:08:42;;;;;;;5.90;2.23;;;13.60;99.90;;;;;;5104458;28;20454;-65
2023/10/04 05:11:09;;;;;;;6.17;2.30;;;13.60;99.90;;;;;;5103881;28;20460;-64
2023/10/04 05:13:36;;;;;;;4.83;3.00;;;13.60;99.90;;;;;;5104033;28;20448;-65
2023/10/04 05:16:02;;;;;;;8.70;3.10;;;13.70;99.90;;;;;;5103647;28;20482;-64
2023/10/04 05:18:27;;;;;;;5.13;2.17;;;13.60;99.90;;;;;;5103643;28;20861;-65
2023/10/04 05:20:54;;;;;;;5.53;2.30;;;13.60;99.90;;;;;;5103897;28;20516;-64
2023/10/04 05:23:24;;;;;;;8.73;2.60;;;13.40;99.90;;;;;;5103238;28;20195;-65
2023/10/04 05:25:52;;;;;;;7.10;2.50;;;13.50;99.90;;;;;;5103441;28;20452;-65
2023/10/04 05:28:18;;;;;;;6.67;3.00;;;13.50;99.90;;;;;;5103226;28;20429;-64
2023/10/04 05:30:46;;;;;;;4.80;2.50;;;13.40;99.90;;;;;;5103514;28;20443;-65
2023/10/04 05:33:13;;;;;;;8.13;3.00;;;13.50;99.90;;;;;;5103199;28;20422;-64
2023/10/04 05:35:44;;;;;;;4.83;2.80;;;13.40;99.90;;;;;;5103187;28;20426;-64
2023/10/04 05:38:11;;;;;;;4.57;2.17;;;13.40;99.90;;;;;;5084988;28;20440;-64
2023/10/04 05:40:39;;;;;;;5.70;2.53;;;13.50;99.90;;;;;;5103495;28;20850;-64
2023/10/04 05:43:08;;;;;;;11.00;3.63;;;13.30;99.90;;;;;;5085341;28;20420;-65
2023/10/04 05:45:36;;;;;;;5.20;3.03;;;13.30;99.90;;;;;;5102748;28;20786;-64
2023/10/04 05:48:05;;;;;;;5.10;3.07;;;13.40;99.90;;;;;;5103668;28;20435;-64
2023/10/04 05:50:34;;;;;;;6.97;3.07;;;13.30;99.90;;;;;;5101676;28;20912;-65
2023/10/04 05:53:07;;;;;;;5.10;2.60;;;13.30;99.90;;;;;;5103292;28;20469;-65
2023/10/04 05:55:37;;;;;;;10.40;3.30;;;13.30;99.90;;;;;;5102752;28;20428;-64
2023/10/04 05:58:07;;;;;;;6.20;3.10;;;13.30;99.90;;;;;;5103457;28;20451;-64
2023/10/04 06:00:34;;;;;;;6.23;3.13;;;13.30;99.90;;;;;;5102805;28;20413;-64
2023/10/04 06:03:06;;;;;;;5.40;2.93;;;13.30;99.90;;;;;;5103593;28;20499;-64
2023/10/04 06:05:34;;;;;;;6.80;2.60;;;13.40;99.90;;;;;;5103093;28;21181;-64
2023/10/04 06:08:03;;;;;;;4.87;2.63;;;13.40;99.90;;;;;;5082041;28;20421;-63
2023/10/04 06:10:29;;;;;;;7.33;2.93;;;13.40;99.90;;;;;;5102766;28;20524;-64
2023/10/04 06:12:56;;;;;;;6.17;2.70;;;13.40;99.90;;;;;;5103122;28;20491;-64
2023/10/04 06:15:24;;;;;;;7.37;2.93;;;13.40;99.90;;;;;;5106293;28;20424;-63
2023/10/04 06:17:52;;;;;;;8.50;2.77;;;13.50;99.90;;;;;;5107353;28;20441;-63
2023/10/04 06:20:25;;;;;;;5.00;2.63;;;13.40;99.90;;;;;;5106591;28;20444;-63
2023/10/04 06:22:55;;;;;;;6.40;3.30;;;13.40;99.90;;;;;;5107447;28;20427;-64
2023/10/04 06:25:22;;;;;;;8.80;2.80;;;13.40;99.90;;;;;;5106582;28;20486;-63
2023/10/04 06:27:50;;;;;;;6.50;2.80;;;13.20;99.90;;;;;;5107260;28;20435;-63
2023/10/04 06:30:20;;;;;;;12.27;3.37;;;13.30;99.90;;;;;;5106326;28;20493;-64
2023/10/04 06:33:06;;;;;;;6.23;2.50;;;13.30;99.90;;;;;;5099669;28;20497;-64
2023/10/04 06:35:32;;;;;;;6.67;2.60;;;13.30;99.90;;;;;;5106733;28;20502;-64
2023/10/04 06:38:09;;;;;;;9.40;2.53;;;13.40;99.90;;;;;;5107398;28;20426;-64
2023/10/04 06:40:36;;;;;;;8.30;3.30;;;13.50;99.90;;;;;;5106710;28;20803;-64
2023/10/04 06:43:06;;;;;;;8.63;3.73;;;13.60;99.90;;;;;;5107070;28;20503;-64
2023/10/04 06:45:34;;;;;;;14.53;3.30;;;13.50;99.90;;;;;;5106672;28;20437;-64
2023/10/04 06:48:01;;;;;;;7.70;3.33;;;13.50;99.90;;;;;;5107246;28;20421;-64
2023/10/04 06:50:28;;;;;;;6.90;3.63;;;13.60;99.90;;;;;;5106070;28;20457;-64
2023/10/04 06:52:57;;;;;;;11.37;5.77;;;13.60;99.90;;;;;;5107088;28;20493;-64
2023/10/04 06:55:23;;;;;;;6.90;3.30;;;13.60;99.90;;;;;;5103380;28;20433;-64
2023/10/04 06:57:49;;;;;;;6.47;2.93;;;13.60;99.90;;;;;;5106851;28;20433;-64
2023/10/04 07:00:18;;;;;;;14.03;3.80;;;13.60;99.90;;;;;;5106229;28;20539;-64
2023/10/04 07:02:43;;;;;;;9.40;3.73;;;13.60;99.90;;;;;;5100548;28;20794;-64
2023/10/04 07:05:11;;;;;;;10.43;3.73;;;13.80;99.90;;;;;;5105726;28;20425;-64
2023/10/04 07:07:37;;;;;;;8.60;3.40;;;13.70;99.90;;;;;;5107008;28;20187;-64
2023/10/04 07:10:06;;;;;;;7.53;3.40;;;13.80;99.90;;;;;;5107191;28;20481;-64
2023/10/04 07:12:33;;;;;;;6.70;3.30;;;13.80;99.90;;;;;;5106041;28;20262;-64
2023/10/04 07:15:00;;;;;;;5.00;3.53;;;13.90;99.90;;;;;;5105886;28;20994;-64
2023/10/04 07:17:29;;;;;;;11.33;3.57;;;14.00;99.90;;;;;;5105761;28;20409;-64
2023/10/04 07:19:58;;;;;;;15.93;4.90;;;14.10;99.90;;;;;;5107737;28;20425;-64
2023/10/04 07:22:29;;;;;;;7.97;3.23;;;14.20;99.90;;;;;;5071057;28;20540;-64
2023/10/04 07:24:57;;;;;;;9.73;3.60;;;14.30;99.90;;;;;;5106445;28;20422;-64
2023/10/04 07:27:22;;;;;;;9.63;4.00;;;14.40;99.90;;;;;;5105766;28;20438;-64
2023/10/04 07:29:48;;;;;;;6.60;3.33;;;14.50;99.90;;;;;;5106673;28;20422;-66
2023/10/04 07:32:14;;;;;;;8.83;3.70;;;14.60;99.90;;;;;;5106280;28;20453;-64
2023/10/04 07:34:39;;;;;;;10.30;4.33;;;14.80;99.90;;;;;;5107018;28;20861;-64
2023/10/04 07:37:05;;;;;;;13.43;4.10;;;15.00;99.90;;;;;;5106191;28;20199;-64
2023/10/04 07:39:32;;;;;;;7.40;3.97;;;15.10;99.90;;;;;;5107230;28;20191;-65
2023/10/04 07:41:58;;;;;;;7.77;4.43;;;15.20;99.90;;;;;;5106454;28;20190;-64
2023/10/04 07:44:25;;;;;;;11.50;3.57;;;15.40;99.90;;;;;;5106717;28;20544;-64
2023/10/04 07:46:50;;;;;;;11.03;4.30;;;15.50;99.90;;;;;;5106318;28;20955;-64
2023/10/04 07:49:16;;;;;;;14.20;4.27;;;15.60;99.90;;;;;;5105619;28;20521;-65
2023/10/04 07:51:42;;;;;;;12.50;4.93;;;15.70;99.90;;;;;;5106881;28;20227;-64
2023/10/04 07:54:08;;;;;;;6.27;3.70;;;15.70;99.90;;;;;;5105959;28;20433;-63
2023/10/04 07:56:34;;;;;;;11.87;4.20;;;15.70;99.90;;;;;;5106986;28;20184;-65
2023/10/04 07:59:01;;;;;;;7.50;4.30;;;15.80;99.90;;;;;;5100163;28;20424;-64
2023/10/04 08:01:28;;;;;;;7.10;4.80;;;15.80;99.90;;;;;;5104298;28;20725;-64
2023/10/04 08:03:55;;;;;;;10.63;5.53;;;15.80;99.90;;;;;;5105712;28;20453;-64
2023/10/04 08:06:21;;;;;;;10.27;4.10;;;15.90;99.90;;;;;;5081759;28;20441;-64
2023/10/04 08:08:48;;;;;;;7.30;3.83;;;16.00;99.90;;;;;;5106030;28;20455;-64
2023/10/04 08:11:14;;;;;;;10.47;4.43;;;16.10;99.90;;;;;;5104654;28;20291;-64
2023/10/04 08:13:39;;;;;;;4.10;3.50;;;16.20;99.90;;;;;;5105151;28;20425;-64
2023/10/04 08:16:05;;;;;;;6.83;4.03;;;16.40;99.90;;;;;;5104600;28;20221;-64
2023/10/04 08:18:31;;;;;;;11.50;3.33;;;16.40;99.90;;;;;;5104949;28;20803;-64
2023/10/04 08:21:03;;;;;;;10.60;5.10;;;16.50;99.90;;;;;;5105300;28;20180;-64
2023/10/04 08:23:29;;;;;;;8.10;3.83;;;16.50;99.90;;;;;;5105359;28;20533;-64
2023/10/04 08:25:55;;;;;;;11.27;4.33;;;16.50;99.90;;;;;;5104470;28;20421;-64
2023/10/04 08:28:20;;;;;;;7.97;4.23;;;16.60;99.90;;;;;;5104024;28;20180;-64
2023/10/04 08:30:51;;;;;;;7.43;3.90;;;16.60;99.90;;;;;;5104893;28;20183;-64
2023/10/04 08:33:25;;;;;;;9.80;3.97;;;16.70;99.90;;;;;;5104475;28;20187;-64
2023/10/04 08:35:50;;;;;;;8.77;3.90;;;16.70;99.90;;;;;;5103911;28;20418;-64
2023/10/04 08:38:16;;;;;;;3.97;3.30;;;16.90;99.90;;;;;;5104020;28;20545;-64
2023/10/04 08:40:42;;;;;;;7.93;3.10;;;17.00;99.90;;;;;;5104672;28;20187;-64
2023/10/04 08:43:09;;;;;;;7.03;3.23;;;17.10;99.90;;;;;;5104232;28;20471;-64
2023/10/04 08:45:35;;;;;;;7.20;3.87;;;17.10;99.90;;;;;;5103761;28;20186;-64
2023/10/04 08:48:02;;;;;;;9.13;3.93;;;17.20;99.90;;;;;;5104239;28;20885;-64
2023/10/04 08:50:39;;;;;;;10.50;3.43;;;17.30;99.90;;;;;;5104077;28;20196;-64
2023/10/04 08:53:24;;;;;;;9.73;3.90;;;17.30;99.90;;;;;;5103797;28;21064;-64
2023/10/04 08:55:53;;;;;;;8.40;3.73;;;17.10;99.90;;;;;;5104383;28;20429;-64
2023/10/04 08:58:20;;;;;;;7.20;3.57;;;17.10;99.90;;;;;;5103782;28;20433;-64
2023/10/04 09:00:48;;;;;;;9.03;3.83;;;17.20;99.90;;;;;;5104453;28;20418;-65
2023/10/04 09:03:15;;;;;;;5.90;3.03;;;17.30;99.90;;;;;;5103555;28;20430;-64
2023/10/04 09:05:46;;;;;;;7.20;3.67;;;17.50;99.90;;;;;;5095814;28;20482;-65
2023/10/04 09:08:16;;;;;;;7.70;2.87;;;17.70;99.90;;;;;;5103733;28;20422;-64
2023/10/04 09:10:42;;;;;;;10.50;3.60;;;17.80;99.90;;;;;;5104244;28;20479;-64
2023/10/04 09:13:09;;;;;;;7.70;3.70;;;17.90;99.90;;;;;;5103381;28;20539;-64
2023/10/04 09:15:35;;;;;;;11.70;4.50;;;17.90;99.90;;;;;;5102586;28;20549;-64
2023/10/04 09:18:03;;;;;;;6.67;3.80;;;18.00;99.90;;;;;;5103667;28;20997;-64
2023/10/04 09:20:30;;;;;;;8.23;3.57;;;18.00;99.90;;;;;;5104271;28;20434;-64
2023/10/04 09:22:59;;;;;;;9.40;2.97;;;18.00;99.90;;;;;;5097862;28;20429;-64
2023/10/04 09:25:38;;;;;;;12.73;3.77;;;18.20;99.90;;;;;;5103087;28;21150;-64
2023/10/04 09:28:04;;;;;;;6.20;3.60;;;18.20;99.90;;;;;;5103072;28;20583;-64
2023/10/04 09:30:34;;;;;;;10.57;4.43;;;18.20;99.90;;;;;;5082383;28;20441;-64
2023/10/04 09:32:59;;;;;;;7.00;3.27;;;18.20;99.90;;;;;;5103267;28;20976;-65
2023/10/04 09:35:42;;;;;;;8.07;3.80;;;18.20;99.90;;;;;;5103213;28;20541;-64
2023/10/04 09:38:20;;;;;;;5.70;3.40;;;18.20;99.90;;;;;;5103285;28;20425;-64
2023/10/04 09:40:56;;;;;;;7.43;3.80;;;18.30;99.90;;;;;;5096203;28;20421;-64
2023/10/04 09:43:35;;;;;;;7.93;3.80;;;18.40;99.90;;;;;;5103451;28;21298;-64
2023/10/04 09:46:07;;;;;;;8.87;3.50;;;18.30;99.90;;;;;;5102696;28;20792;-64
2023/10/04 09:48:34;;;;;;;8.67;3.70;;;18.30;99.90;;;;;;5103653;28;20473;-65
2023/10/04 09:51:01;;;;;;;13.87;3.47;;;18.30;99.90;;;;;;5102692;28;20468;-64
2023/10/04 09:53:31;;;;;;;11.67;3.47;;;18.20;99.90;;;;;;5103748;28;21342;-64
2023/10/04 09:56:04;;;;;;;7.00;3.57;;;18.20;99.90;;;;;;5102734;28;20472;-64
2023/10/04 09:58:32;;;;;;;8.10;3.50;;;18.10;99.90;;;;;;5103632;28;21226;-65
2023/10/04 10:01:19;;;;;;;7.83;3.53;;;18.20;99.90;;;;;;5103389;28;20433;-64
2023/10/04 10:04:05;;;;;;;8.20;3.53;;;18.30;99.90;;;;;;5103679;28;20759;-64
2023/10/04 10:06:33;;;;;;;11.63;3.40;;;18.30;99.90;;;;;;5102843;28;20829;-64
2023/10/04 10:09:02;;;;;;;8.00;3.37;;;18.30;99.90;;;;;;5103027;28;20532;-63
2023/10/04 10:11:30;;;;;;;6.00;2.90;;;18.40;99.90;;;;;;5103180;28;20497;-64
2023/10/04 10:13:57;;;;;;;4.90;3.20;;;18.50;99.90;;;;;;5103079;28;20418;-64
2023/10/04 10:16:24;;;;;;;6.87;3.33;;;18.40;99.90;;;;;;5102398;28;20444;-64
2023/10/04 10:18:52;;;;;;;10.63;3.70;;;18.30;99.90;;;;;;5103482;28;20463;-64
2023/10/04 10:21:18;;;;;;;5.40;2.90;;;18.30;99.90;;;;;;5102540;28;20962;-65
2023/10/04 10:24:03;;;;;;;8.83;3.00;;;18.10;99.90;;;;;;5103483;28;20430;-64
2023/10/04 10:26:32;;;;;;;9.20;3.60;;;18.10;99.90;;;;;;5101930;28;20243;-65
2023/10/04 10:29:03;;;;;;;10.73;3.17;;;18.10;99.90;;;;;;5102627;28;20490;-64
2023/10/04 10:31:29;;;;;;;7.63;3.20;;;18.00;99.90;;;;;;5102907;28;20493;-64
2023/10/04 10:33:56;;;;;;;8.17;3.10;;;17.90;99.90;;;;;;5102494;28;20453;-63
2023/10/04 10:36:26;;;;;;;7.73;2.80;;;18.00;99.90;;;;;;5102787;28;20422;-63
2023/10/04 10:38:52;;;;;;;8.40;3.27;;;17.90;99.90;;;;;;5102752;28;20491;-64
2023/10/04 10:41:27;;;;;;;5.63;2.63;;;18.00;99.90;;;;;;5102387;28;20507;-64
2023/10/04 10:44:11;;;;;;;4.83;2.80;;;17.90;99.90;;;;;;5102531;28;20869;-63
2023/10/04 10:46:59;;;;;;;5.60;2.50;;;17.80;99.90;;;;;;5102975;28;20453;-63
2023/10/04 10:49:40;;;;;;;9.00;3.20;;;17.70;99.90;;;;;;5084887;28;20471;-64
2023/10/04 10:52:28;;;;;;;9.33;3.10;;;17.70;99.90;;;;;;5102244;28;20453;-64
2023/10/04 10:54:57;;;;;;;9.53;2.90;;;17.50;99.90;;;;;;5099861;28;21218;-64
2023/10/04 10:57:30;;;;;;;8.43;3.03;;;17.60;99.90;;;;;;5084589;28;21075;-64
2023/10/04 10:59:57;;;;;;;5.57;2.63;;;17.60;99.90;;;;;;5103890;28;20440;-64
2023/10/04 11:02:24;;;;;;;6.47;2.20;;;17.60;99.90;;;;;;5106500;28;20897;-64
2023/10/04 11:04:51;;;;;;;7.67;3.07;;;17.60;99.90;;;;;;5106159;28;20433;-64
2023/10/04 11:07:21;;;;;;;6.87;2.80;;;17.60;99.90;;;;;;5106177;28;20513;-63
2023/10/04 11:09:52;;;;;;;5.80;3.43;;;17.60;99.90;;;;;;5106825;28;20478;-64
2023/10/04 11:12:21;;;;;;;9.83;3.03;;;17.70;99.90;;;;;;5105999;28;20480;-63
2023/10/04 11:14:47;;;;;;;8.47;2.80;;;17.70;99.90;;;;;;5106282;28;20421;-64
2023/10/04 11:17:14;;;;;;;8.63;3.03;;;17.70;99.90;;;;;;5106398;28;20432;-64
2023/10/04 11:19:41;;;;;;;6.77;2.90;;;17.70;99.90;;;;;;5106475;28;20779;-64
2023/10/04 11:22:08;;;;;;;4.73;2.33;;;17.80;99.90;;;;;;5105421;28;20409;-64
2023/10/04 11:24:35;;;;;;;8.00;3.00;;;17.80;99.90;;;;;;5106243;28;20497;-64
2023/10/04 11:27:01;;;;;;;8.97;3.40;;;17.90;99.90;;;;;;5105377;28;20924;-63
2023/10/04 11:29:29;;;;;;;6.93;3.13;;;18.00;99.90;;;;;;5106457;28;20433;-64
2023/10/04 11:32:00;;;;;;;7.90;2.83;;;18.10;99.90;;;;;;5105728;28;20204;-63
2023/10/04 11:34:27;;;;;;;4.83;2.77;;;18.20;99.90;;;;;;5105994;28;20421;-63
2023/10/04 11:36:59;;;;;;;7.50;3.00;;;18.10;99.90;;;;;;5105437;28;20544;-63
2023/10/04 11:39:33;;;;;;;5.90;2.73;;;18.20;99.90;;;;;;5105904;28;20484;-64
2023/10/04 11:42:02;;;;;;;5.43;2.23;;;18.30;99.90;;;;;;5104711;28;20421;-63
2023/10/04 11:44:35;;;;;;;5.03;2.73;;;18.40;99.90;;;;;;5106098;28;20483;-64
2023/10/04 11:47:03;;;;;;;7.23;3.40;;;18.50;99.90;;;;;;5104602;28;20500;-63
2023/10/04 11:49:32;;;;;;;5.20;3.00;;;18.50;99.90;;;;;;5105853;28;20445;-64
2023/10/04 11:52:00;;;;;;;8.83;3.03;;;18.70;99.90;;;;;;5105198;28;20503;-64
2023/10/04 11:54:46;;;;;;;5.00;2.83;;;18.70;99.90;;;;;;5105541;28;20426;-64
2023/10/04 11:57:22;;;;;;;6.13;2.70;;;18.80;99.90;;;;;;5093611;28;21033;-64
2023/10/04 11:59:48;;;;;;;6.40;2.80;;;18.60;99.90;;;;;;5105358;28;20421;-63
2023/10/04 12:02:14;;;;;;;7.47;3.17;;;18.50;99.90;;;;;;5105225;28;20444;-64
2023/10/04 12:04:40;;;;;;;5.43;2.30;;;18.30;99.90;;;;;;5105389;28;20179;-63
2023/10/04 12:07:09;;;;;;;5.17;2.60;;;18.30;99.90;;;;;;5104589;28;20183;-64
2023/10/04 12:09:36;;;;;;;7.70;2.77;;;18.20;99.90;;;;;;5105778;28;20190;-64
2023/10/04 12:12:05;;;;;;;8.87;2.83;;;18.20;99.90;;;;;;5103253;28;21016;-64
2023/10/04 12:14:34;;;;;;;9.33;2.80;;;18.20;99.90;;;;;;5105513;28;20708;-64
2023/10/04 12:17:05;;;;;;;11.03;3.50;;;18.20;99.90;;;;;;5104809;28;20425;-64
2023/10/04 12:19:35;;;;;;;3.00;2.13;;;18.30;99.90;;;;;;5105159;28;20457;-64
2023/10/04 12:22:08;;;;;;;5.63;2.37;;;18.30;99.90;;;;;;5104042;28;21000;-64
2023/10/04 12:24:38;;;;;;;9.23;3.40;;;18.40;99.90;;;;;;5105143;28;20519;-64
2023/10/04 12:27:08;;;;;;;6.60;2.97;;;18.50;99.90;;;;;;5104135;28;20418;-64
2023/10/04 12:29:37;;;;;;;6.27;3.03;;;18.50;99.90;;;;;;5105057;28;20430;-64
2023/10/04 12:32:04;;;;;;;5.40;2.93;;;18.40;99.90;;;;;;5103891;28;21124;-64
2023/10/04 12:34:30;;;;;;;5.30;2.80;;;18.50;99.90;;;;;;5104645;28;20603;-64
2023/10/04 12:36:56;;;;;;;3.90;2.47;;;18.40;99.90;;;;;;5104301;28;20522;-64
2023/10/04 12:39:23;;;;;;;7.30;3.20;;;18.40;99.90;;;;;;5105172;28;20438;-64
2023/10/04 12:41:49;;;;;;;7.97;2.93;;;18.30;99.90;;;;;;5104373;28;20184;-64
2023/10/04 12:44:17;;;;;;;6.87;3.00;;;18.30;99.90;;;;;;5104630;28;20495;-64
2023/10/04 12:46:43;;;;;;;6.40;3.97;;;18.40;99.90;;;;;;5104489;28;20468;-64
2023/10/04 12:49:09;;;;;;;6.50;3.10;;;18.30;99.90;;;;;;5104250;28;20532;-64
2023/10/04 12:51:35;;;;;;;8.73;3.23;;;18.30;99.90;;;;;;5104167;28;20790;-63
2023/10/04 12:54:01;;;;;;;7.40;3.50;;;18.10;99.90;;;;;;5103602;28;20180;-63
2023/10/04 12:56:27;;;;;;;7.43;3.50;;;18.10;99.90;;;;;;5104421;28;20188;-64
2023/10/04 12:58:53;;;;;;;8.33;3.30;;;18.10;99.90;;;;;;5104006;28;20496;-63